Time;durP1;ratioP1;P1;durP2;ratioP2;P2;SDS_P1;SDS_P2;PMS_P1;PMS_P2;Temp;Humidity;BMP_temperature;BMP_pressure;BME280_temperature;BME280_humidity;BME280_pressure;Samples;Min_cycle;Max_cycle;Signal;HPM_P1;HPM_P2
2022/07/20 00:00:14;;;;;;;417.75;256.38;;;;;;;;;;4975756;28;20189;-52
2022/07/20 00:02:40;;;;;;;392.90;245.32;;;;;;;;;;4980586;28;20225;-52
2022/07/20 00:05:06;;;;;;;400.25;245.27;;;;;;;;;;4976573;28;20227;-52
2022/07/20 00:07:32;;;;;;;405.52;253.25;;;;;;;;;;4978752;28;20586;-52
2022/07/20 00:12:43;;;;;;;385.92;242.65;;;;;;;;;;4976095;28;20189;-52
2022/07/20 00:15:09;;;;;;;408.85;248.63;;;;;;;;;;4973199;28;20185;-52
2022/07/20 00:17:35;;;;;;;406.75;248.05;;;;;;;;;;4979690;28;20221;-52
2022/07/20 00:20:02;;;;;;;419.15;254.25;;;;;;;;;;4976886;28;20228;-52
2022/07/20 00:22:27;;;;;;;448.75;266.85;;;;;;;;;;4975214;28;20225;-52
2022/07/20 00:24:53;;;;;;;377.33;234.93;;;;;;;;;;4980003;28;20236;-52
2022/07/20 00:27:19;;;;;;;444.67;266.55;;;;;;;;;;4975918;28;20212;-52
2022/07/20 00:29:45;;;;;;;427.45;253.07;;;;;;;;;;4975515;28;20307;-52
2022/07/20 00:32:12;;;;;;;395.95;241.00;;;;;;;;;;4975240;28;20761;-52
2022/07/20 00:34:37;;;;;;;408.58;247.65;;;;;;;;;;4974204;28;20228;-52
2022/07/20 00:37:03;;;;;;;431.23;254.85;;;;;;;;;;4970910;28;20226;-52
2022/07/20 00:39:29;;;;;;;428.27;252.15;;;;;;;;;;4981825;28;20465;-52
2022/07/20 00:41:55;;;;;;;398.30;244.48;;;;;;;;;;4975222;28;20245;-52
2022/07/20 00:44:21;;;;;;;423.52;253.88;;;;;;;;;;4976574;28;20768;-52
2022/07/20 00:46:47;;;;;;;381.02;235.77;;;;;;;;;;4971605;28;20232;-52
2022/07/20 00:49:14;;;;;;;434.13;259.77;;;;;;;;;;4973306;28;20218;-52
2022/07/20 00:51:41;;;;;;;409.42;238.77;;;;;;;;;;4972919;28;20194;-52
2022/07/20 00:54:08;;;;;;;433.45;253.35;;;;;;;;;;4978274;28;20230;-52
2022/07/20 00:56:34;;;;;;;381.63;235.40;;;;;;;;;;4975754;28;20864;-52
2022/07/20 00:59:05;;;;;;;423.23;254.15;;;;;;;;;;4978445;28;20217;-52
2022/07/20 01:01:31;;;;;;;389.63;236.52;;;;;;;;;;4977296;28;20221;-52
2022/07/20 01:03:57;;;;;;;396.45;233.75;;;;;;;;;;4977477;28;20599;-52
2022/07/20 01:06:23;;;;;;;410.85;238.07;;;;;;;;;;4976321;28;20217;-52
2022/07/20 01:08:50;;;;;;;383.58;227.30;;;;;;;;;;4974870;28;20214;-52
2022/07/20 01:11:16;;;;;;;415.90;249.13;;;;;;;;;;4981251;28;20244;-52
2022/07/20 01:13:42;;;;;;;403.33;244.90;;;;;;;;;;4976322;28;20221;-52
2022/07/20 01:16:08;;;;;;;396.63;240.45;;;;;;;;;;4974378;28;20654;-52
2022/07/20 01:18:34;;;;;;;421.40;251.88;;;;;;;;;;4981652;28;20186;-52
2022/07/20 01:21:04;;;;;;;403.92;242.75;;;;;;;;;;4975493;28;20268;-52
2022/07/20 01:23:30;;;;;;;418.42;241.82;;;;;;;;;;4977551;28;20221;-52
2022/07/20 01:25:56;;;;;;;386.60;228.32;;;;;;;;;;4978621;28;20225;-52
2022/07/20 01:28:22;;;;;;;380.80;223.90;;;;;;;;;;4974431;28;20240;-52
2022/07/20 01:30:48;;;;;;;405.73;235.82;;;;;;;;;;4978848;28;20222;-52
2022/07/20 01:33:15;;;;;;;373.90;227.82;;;;;;;;;;4986761;28;20184;-50
2022/07/20 01:35:40;;;;;;;362.42;220.40;;;;;;;;;;4998595;28;20229;-50
2022/07/20 01:38:06;;;;;;;355.55;216.05;;;;;;;;;;4997294;28;20225;-49
2022/07/20 01:40:33;;;;;;;364.30;220.43;;;;;;;;;;4997121;28;20218;-50
2022/07/20 01:42:59;;;;;;;341.67;205.88;;;;;;;;;;4996016;28;20225;-49
2022/07/20 01:45:24;;;;;;;364.08;220.52;;;;;;;;;;4995849;28;20174;-50
2022/07/20 01:47:50;;;;;;;366.15;223.95;;;;;;;;;;4996316;28;20240;-50
2022/07/20 01:50:16;;;;;;;343.20;207.73;;;;;;;;;;5000309;28;20221;-50
2022/07/20 01:52:42;;;;;;;359.77;216.57;;;;;;;;;;4996888;28;20229;-50
2022/07/20 01:55:08;;;;;;;355.50;210.30;;;;;;;;;;4997147;28;20551;-49
2022/07/20 01:57:34;;;;;;;354.02;215.02;;;;;;;;;;5001529;28;20193;-50
2022/07/20 02:00:00;;;;;;;357.40;212.20;;;;;;;;;;4997320;28;20228;-49
2022/07/20 02:02:26;;;;;;;350.52;209.93;;;;;;;;;;4990798;28;20229;-50
2022/07/20 02:04:52;;;;;;;359.08;207.30;;;;;;;;;;4993066;28;20224;-49
2022/07/20 02:07:18;;;;;;;327.90;200.95;;;;;;;;;;4992416;28;20226;-49
2022/07/20 02:09:44;;;;;;;369.15;215.00;;;;;;;;;;4977236;28;20222;-49
2022/07/20 02:12:10;;;;;;;358.02;205.95;;;;;;;;;;4994695;28;20174;-49
2022/07/20 02:14:36;;;;;;;348.60;205.38;;;;;;;;;;4997296;28;20222;-49
2022/07/20 02:17:02;;;;;;;352.27;203.38;;;;;;;;;;5006642;28;20589;-49
2022/07/20 02:19:28;;;;;;;322.23;187.82;;;;;;;;;;5009451;28;20236;-49
2022/07/20 02:21:54;;;;;;;352.90;202.68;;;;;;;;;;4985395;28;20686;-49
2022/07/20 02:24:20;;;;;;;362.60;206.15;;;;;;;;;;4997453;28;20177;-49
2022/07/20 02:26:46;;;;;;;352.50;202.85;;;;;;;;;;4998133;28;20277;-50
2022/07/20 02:29:12;;;;;;;348.15;198.98;;;;;;;;;;4994915;28;20654;-50
2022/07/20 02:31:38;;;;;;;358.45;202.73;;;;;;;;;;4996562;28;20276;-49
2022/07/20 02:34:04;;;;;;;346.00;191.57;;;;;;;;;;5000621;28;20217;-49
2022/07/20 02:36:30;;;;;;;354.48;200.10;;;;;;;;;;4992856;28;20190;-49
2022/07/20 02:38:56;;;;;;;340.17;195.07;;;;;;;;;;5000588;28;20232;-49
2022/07/20 02:41:22;;;;;;;366.48;207.10;;;;;;;;;;5000454;28;20280;-49
2022/07/20 02:43:48;;;;;;;345.77;198.32;;;;;;;;;;5000464;28;20327;-49
2022/07/20 02:46:14;;;;;;;361.70;212.07;;;;;;;;;;5000282;28;20221;-49
2022/07/20 02:48:40;;;;;;;358.30;208.95;;;;;;;;;;5000461;28;20228;-49
2022/07/20 02:51:06;;;;;;;349.83;203.32;;;;;;;;;;5000362;28;20181;-49
2022/07/20 02:53:32;;;;;;;367.48;209.15;;;;;;;;;;5012453;28;20225;-49
2022/07/20 02:55:58;;;;;;;349.58;204.27;;;;;;;;;;5020037;28;20224;-49
2022/07/20 02:58:24;;;;;;;356.08;207.15;;;;;;;;;;5006053;28;20225;-49
2022/07/20 03:00:50;;;;;;;359.08;206.95;;;;;;;;;;5008167;28;20220;-50
2022/07/20 03:03:16;;;;;;;364.63;208.75;;;;;;;;;;5014896;28;20174;-49
2022/07/20 03:05:41;;;;;;;341.50;195.80;;;;;;;;;;4984542;28;20671;-49
2022/07/20 03:08:08;;;;;;;349.85;196.93;;;;;;;;;;5009265;28;20695;-49
2022/07/20 03:10:34;;;;;;;355.55;195.98;;;;;;;;;;5005079;28;20218;-50
2022/07/20 03:13:00;;;;;;;361.23;202.82;;;;;;;;;;5000032;28;20605;-49
2022/07/20 03:15:27;;;;;;;334.70;189.80;;;;;;;;;;4994093;28;20186;-49
2022/07/20 03:17:54;;;;;;;351.90;202.02;;;;;;;;;;4999831;28;20232;-49
2022/07/20 03:20:22;;;;;;;358.05;205.23;;;;;;;;;;4996341;28;20225;-50
2022/07/20 03:22:47;;;;;;;352.88;199.00;;;;;;;;;;5006074;28;20283;-49
2022/07/20 03:25:13;;;;;;;351.45;202.88;;;;;;;;;;4999597;28;20229;-49
2022/07/20 03:27:39;;;;;;;344.67;198.60;;;;;;;;;;5002260;28;20197;-50
2022/07/20 03:30:06;;;;;;;350.45;201.75;;;;;;;;;;5001953;28;20181;-49
2022/07/20 03:32:32;;;;;;;345.67;201.80;;;;;;;;;;5011588;28;20658;-50
2022/07/20 03:34:58;;;;;;;354.35;207.20;;;;;;;;;;4999526;28;20299;-49
2022/07/20 03:37:24;;;;;;;360.83;206.32;;;;;;;;;;4999255;28;20694;-50
2022/07/20 03:39:50;;;;;;;357.33;208.32;;;;;;;;;;5003428;28;20240;-49
2022/07/20 03:42:16;;;;;;;352.58;202.98;;;;;;;;;;5001238;28;20178;-49
2022/07/20 03:44:42;;;;;;;336.65;195.45;;;;;;;;;;5018471;28;20232;-49
2022/07/20 03:47:07;;;;;;;351.35;199.38;;;;;;;;;;5018770;28;20274;-49
2022/07/20 03:49:33;;;;;;;357.45;211.82;;;;;;;;;;5000948;28;20597;-49
2022/07/20 03:51:59;;;;;;;345.20;204.50;;;;;;;;;;5015622;28;20221;-49
2022/07/20 03:54:25;;;;;;;361.45;210.43;;;;;;;;;;4988809;28;20190;-49
2022/07/20 03:56:51;;;;;;;321.25;182.98;;;;;;;;;;4992066;28;20264;-50
2022/07/20 03:59:17;;;;;;;350.38;203.45;;;;;;;;;;5005816;28;20248;-49
2022/07/20 04:01:43;;;;;;;353.25;205.57;;;;;;;;;;5018840;28;20233;-49
2022/07/20 04:04:09;;;;;;;344.70;190.65;;;;;;;;;;5007385;28;20657;-49
2022/07/20 04:06:35;;;;;;;367.10;203.30;;;;;;;;;;4993379;28;20202;-49
2022/07/20 04:09:01;;;;;;;348.08;192.32;;;;;;;;;;5001932;28;20692;-49
2022/07/20 04:11:28;;;;;;;352.63;195.27;;;;;;;;;;5004929;28;20228;-50
2022/07/20 04:13:53;;;;;;;360.42;196.80;;;;;;;;;;4996681;28;20225;-49
2022/07/20 04:16:20;;;;;;;361.15;198.07;;;;;;;;;;4998476;28;20221;-49
2022/07/20 04:18:46;;;;;;;356.85;196.55;;;;;;;;;;4998638;28;20224;-49
2022/07/20 04:21:12;;;;;;;331.00;183.25;;;;;;;;;;4999081;28;20603;-49
2022/07/20 04:23:37;;;;;;;343.60;193.48;;;;;;;;;;4998591;28;20221;-49
2022/07/20 04:26:04;;;;;;;354.02;199.57;;;;;;;;;;4998575;28;20221;-50
2022/07/20 04:28:30;;;;;;;360.08;201.00;;;;;;;;;;4998609;28;20666;-49
2022/07/20 04:30:56;;;;;;;358.25;199.88;;;;;;;;;;4998760;28;20216;-50
2022/07/20 04:33:21;;;;;;;356.38;204.48;;;;;;;;;;4998807;28;20178;-49
2022/07/20 04:35:49;;;;;;;368.08;205.10;;;;;;;;;;5003069;28;20810;-50
2022/07/20 04:38:17;;;;;;;362.52;202.60;;;;;;;;;;4998086;28;20233;-50
2022/07/20 04:40:43;;;;;;;360.25;203.15;;;;;;;;;;4998111;28;20217;-49
2022/07/20 04:43:09;;;;;;;352.50;199.30;;;;;;;;;;4998295;28;20516;-50
2022/07/20 04:45:35;;;;;;;355.88;200.27;;;;;;;;;;5018856;28;20181;-49
2022/07/20 04:48:01;;;;;;;352.83;202.07;;;;;;;;;;5008035;28;20193;-50
2022/07/20 04:50:27;;;;;;;366.98;206.00;;;;;;;;;;5001064;28;20213;-50
2022/07/20 04:52:52;;;;;;;366.90;206.82;;;;;;;;;;4997891;28;20299;-49
2022/07/20 04:55:18;;;;;;;374.67;213.85;;;;;;;;;;5003977;28;20220;-49
2022/07/20 04:57:45;;;;;;;340.42;197.45;;;;;;;;;;4998029;28;20291;-50
2022/07/20 05:00:11;;;;;;;351.63;206.38;;;;;;;;;;4989230;28;20190;-50
2022/07/20 05:02:37;;;;;;;370.85;212.30;;;;;;;;;;4985836;28;20233;-50
2022/07/20 05:05:04;;;;;;;354.92;205.27;;;;;;;;;;4995539;28;20236;-49
2022/07/20 05:07:30;;;;;;;344.33;198.20;;;;;;;;;;4996557;28;20285;-49
2022/07/20 05:09:56;;;;;;;342.85;208.57;;;;;;;;;;4997868;28;20229;-49
2022/07/20 05:12:22;;;;;;;350.45;202.13;;;;;;;;;;4998352;28;20169;-50
2022/07/20 05:14:48;;;;;;;361.67;210.10;;;;;;;;;;4997885;28;20229;-49
2022/07/20 05:17:14;;;;;;;352.60;208.35;;;;;;;;;;4997432;28;20229;-49
2022/07/20 05:19:40;;;;;;;354.52;205.25;;;;;;;;;;4997849;28;20225;-51
2022/07/20 05:22:06;;;;;;;325.75;193.50;;;;;;;;;;4997893;28;20224;-51
2022/07/20 05:24:32;;;;;;;343.02;204.32;;;;;;;;;;4998328;28;20224;-52
2022/07/20 05:26:58;;;;;;;345.08;212.65;;;;;;;;;;4998779;28;20205;-51
2022/07/20 05:29:23;;;;;;;336.30;199.70;;;;;;;;;;4994551;28;20558;-49
2022/07/20 05:31:50;;;;;;;394.60;227.35;;;;;;;;;;4976768;28;20218;-49
2022/07/20 05:34:15;;;;;;;332.60;198.00;;;;;;;;;;4977971;28;20218;-49
2022/07/20 05:36:41;;;;;;;348.73;210.68;;;;;;;;;;4978056;28;20606;-47
2022/07/20 05:39:09;;;;;;;348.58;210.70;;;;;;;;;;4993736;28;20186;-47
2022/07/20 05:41:35;;;;;;;343.50;209.48;;;;;;;;;;4978257;28;20226;-47
2022/07/20 05:44:01;;;;;;;351.40;208.73;;;;;;;;;;4978944;28;20558;-47
2022/07/20 05:46:28;;;;;;;373.33;222.80;;;;;;;;;;4978116;28;20230;-47
2022/07/20 05:48:54;;;;;;;343.33;208.98;;;;;;;;;;4978428;28;20218;-47
2022/07/20 05:51:20;;;;;;;359.58;223.88;;;;;;;;;;4975852;28;20174;-47
2022/07/20 05:53:46;;;;;;;368.70;233.23;;;;;;;;;;4976525;28;20226;-47
2022/07/20 05:56:11;;;;;;;347.30;211.57;;;;;;;;;;4978043;28;20268;-47
2022/07/20 05:58:38;;;;;;;362.35;220.20;;;;;;;;;;4978002;28;20226;-47
2022/07/20 06:01:04;;;;;;;344.98;211.15;;;;;;;;;;4978151;28;20218;-48
2022/07/20 06:03:30;;;;;;;355.35;219.73;;;;;;;;;;4981718;28;20241;-48
2022/07/20 06:05:56;;;;;;;351.15;218.60;;;;;;;;;;4982150;28;20177;-47
2022/07/20 06:08:22;;;;;;;335.55;214.32;;;;;;;;;;4981804;28;20237;-47
2022/07/20 06:10:48;;;;;;;345.75;217.90;;;;;;;;;;4997227;28;20226;-47
2022/07/20 06:13:14;;;;;;;351.98;234.32;;;;;;;;;;4981813;28;20218;-47
2022/07/20 06:15:40;;;;;;;343.35;220.77;;;;;;;;;;4982029;28;20210;-47
2022/07/20 06:18:07;;;;;;;369.02;242.73;;;;;;;;;;4982123;28;20194;-47
2022/07/20 06:20:35;;;;;;;336.13;215.63;;;;;;;;;;4981684;28;20713;-48
2022/07/20 06:23:01;;;;;;;358.63;229.35;;;;;;;;;;4981648;28;20281;-47
2022/07/20 06:25:27;;;;;;;356.42;231.27;;;;;;;;;;4981580;28;20233;-47
2022/07/20 06:27:53;;;;;;;356.77;229.13;;;;;;;;;;4981142;28;20559;-48
2022/07/20 06:30:19;;;;;;;359.05;225.23;;;;;;;;;;4981910;28;20179;-47
2022/07/20 06:32:45;;;;;;;346.63;222.35;;;;;;;;;;4981133;28;20222;-47
2022/07/20 06:35:11;;;;;;;351.08;231.02;;;;;;;;;;4981505;28;20598;-47
2022/07/20 06:37:38;;;;;;;361.67;235.23;;;;;;;;;;4981001;28;20230;-48
2022/07/20 06:40:05;;;;;;;358.50;236.43;;;;;;;;;;4981466;28;20591;-48
2022/07/20 06:42:31;;;;;;;349.15;226.32;;;;;;;;;;4981546;28;20166;-48
2022/07/20 06:44:57;;;;;;;357.40;234.43;;;;;;;;;;4981546;28;20657;-48
2022/07/20 06:47:23;;;;;;;362.65;239.32;;;;;;;;;;4980841;28;20698;-48
2022/07/20 06:49:49;;;;;;;362.17;233.77;;;;;;;;;;4981171;28;20222;-48
2022/07/20 06:52:15;;;;;;;363.63;240.07;;;;;;;;;;4981140;28;20226;-47
2022/07/20 06:54:41;;;;;;;346.95;229.80;;;;;;;;;;4981009;28;22319;-47
2022/07/20 06:57:07;;;;;;;356.55;239.27;;;;;;;;;;4981076;28;20264;-48
2022/07/20 06:59:33;;;;;;;349.38;237.80;;;;;;;;;;4981017;28;20233;-47
2022/07/20 07:01:59;;;;;;;389.38;253.30;;;;;;;;;;4980660;28;20226;-48
2022/07/20 07:04:25;;;;;;;356.70;237.48;;;;;;;;;;4980552;28;20229;-48
2022/07/20 07:06:51;;;;;;;357.00;245.52;;;;;;;;;;4980530;28;20218;-47
2022/07/20 07:09:17;;;;;;;367.17;256.25;;;;;;;;;;4980801;28;20182;-47
2022/07/20 07:11:43;;;;;;;367.27;264.88;;;;;;;;;;4980435;28;20268;-48
2022/07/20 07:14:09;;;;;;;391.02;283.17;;;;;;;;;;4979998;28;20234;-48
2022/07/20 07:16:35;;;;;;;365.25;269.70;;;;;;;;;;4980343;28;20643;-48
2022/07/20 07:19:01;;;;;;;377.02;277.58;;;;;;;;;;4980160;28;20218;-47
2022/07/20 07:21:27;;;;;;;387.25;283.63;;;;;;;;;;4979999;28;20241;-48
2022/07/20 07:23:53;;;;;;;390.23;281.08;;;;;;;;;;4980717;28;20169;-48
2022/07/20 07:26:20;;;;;;;392.83;282.77;;;;;;;;;;4979985;28;20245;-48
2022/07/20 07:28:47;;;;;;;363.35;274.05;;;;;;;;;;4979598;28;20230;-48
2022/07/20 07:31:15;;;;;;;426.95;315.30;;;;;;;;;;4979329;28;20271;-47
2022/07/20 07:33:40;;;;;;;365.73;275.98;;;;;;;;;;4979361;28;20181;-47
2022/07/20 07:36:07;;;;;;;402.88;293.70;;;;;;;;;;4979860;28;20175;-48
2022/07/20 07:38:33;;;;;;;390.17;283.75;;;;;;;;;;4979450;28;20226;-47
2022/07/20 07:40:59;;;;;;;374.20;279.35;;;;;;;;;;4979695;28;20225;-47
2022/07/20 07:43:25;;;;;;;379.95;280.85;;;;;;;;;;4979758;28;20225;-48
2022/07/20 07:45:51;;;;;;;422.85;303.20;;;;;;;;;;4979174;28;20218;-48
2022/07/20 07:48:17;;;;;;;384.10;289.83;;;;;;;;;;4979256;28;20206;-47
2022/07/20 07:50:43;;;;;;;401.67;302.33;;;;;;;;;;4979105;28;20222;-48
2022/07/20 07:53:09;;;;;;;395.85;291.50;;;;;;;;;;4979552;28;20744;-48
2022/07/20 07:55:36;;;;;;;374.20;266.55;;;;;;;;;;4979290;28;20678;-47
2022/07/20 07:58:02;;;;;;;367.25;266.15;;;;;;;;;;4979132;28;20226;-48
2022/07/20 08:00:28;;;;;;;376.40;269.17;;;;;;;;;;4979226;28;20174;-48
2022/07/20 08:02:54;;;;;;;350.75;264.95;;;;;;;;;;4979363;28;20799;-49
2022/07/20 08:05:20;;;;;;;381.05;276.90;;;;;;;;;;4978810;28;20233;-49
2022/07/20 08:07:46;;;;;;;350.42;280.73;;;;;;;;;;4979283;28;20721;-49
2022/07/20 08:10:12;;;;;;;396.67;299.50;;;;;;;;;;4979263;28;20222;-49
2022/07/20 08:12:38;;;;;;;369.83;292.27;;;;;;;;;;4979938;28;20181;-49
2022/07/20 08:15:05;;;;;;;381.50;292.73;;;;;;;;;;4994672;28;20223;-49
2022/07/20 08:17:31;;;;;;;389.00;298.02;;;;;;;;;;4979030;28;20242;-49
2022/07/20 08:19:57;;;;;;;376.27;294.50;;;;;;;;;;4994354;28;20253;-48
2022/07/20 08:22:23;;;;;;;391.13;297.35;;;;;;;;;;4979180;28;20226;-49
2022/07/20 08:24:49;;;;;;;351.80;280.27;;;;;;;;;;4978754;28;20342;-49
2022/07/20 08:27:15;;;;;;;396.23;304.95;;;;;;;;;;4979631;28;20573;-49
2022/07/20 08:29:41;;;;;;;378.08;295.50;;;;;;;;;;4979259;28;20230;-49
2022/07/20 08:32:07;;;;;;;381.40;296.25;;;;;;;;;;4978816;28;20570;-49
2022/07/20 08:34:33;;;;;;;368.15;294.35;;;;;;;;;;4978845;28;20264;-49
2022/07/20 08:37:00;;;;;;;367.15;286.83;;;;;;;;;;4978589;28;20666;-49
2022/07/20 08:39:26;;;;;;;380.88;292.42;;;;;;;;;;4978853;28;20166;-49
2022/07/20 08:41:53;;;;;;;348.23;280.70;;;;;;;;;;4979801;28;20193;-49
2022/07/20 08:44:19;;;;;;;382.20;308.38;;;;;;;;;;4978879;28;20229;-49
2022/07/20 08:46:45;;;;;;;376.33;300.80;;;;;;;;;;4978326;28;20221;-49
2022/07/20 08:49:13;;;;;;;376.35;305.10;;;;;;;;;;4978637;28;20222;-49
2022/07/20 08:51:39;;;;;;;399.00;323.63;;;;;;;;;;4978543;28;20225;-49
2022/07/20 08:54:05;;;;;;;367.08;296.98;;;;;;;;;;4979580;28;20639;-49
2022/07/20 08:56:32;;;;;;;397.83;318.35;;;;;;;;;;4979009;28;20230;-49
2022/07/20 08:58:58;;;;;;;371.38;302.95;;;;;;;;;;4978583;28;20618;-47
2022/07/20 09:01:24;;;;;;;373.88;303.92;;;;;;;;;;4978767;28;20255;-48
2022/07/20 09:04:08;;;;;;;371.88;296.30;;;;;;;;;;4978699;28;20222;-47
2022/07/20 09:06:34;;;;;;;379.95;312.52;;;;;;;;;;4978638;28;20205;-47
2022/07/20 09:09:05;;;;;;;376.15;308.83;;;;;;;;;;4978929;28;20225;-47
2022/07/20 09:11:32;;;;;;;397.50;315.33;;;;;;;;;;4978097;28;20561;-48
2022/07/20 09:13:58;;;;;;;380.25;308.08;;;;;;;;;;4978778;28;20536;-48
2022/07/20 09:16:31;;;;;;;377.05;319.10;;;;;;;;;;4978243;28;20272;-48
2022/07/20 09:18:57;;;;;;;379.77;320.73;;;;;;;;;;4978630;28;20218;-48
2022/07/20 09:21:31;;;;;;;390.70;336.63;;;;;;;;;;4978306;28;20532;-50
2022/07/20 09:24:01;;;;;;;381.02;329.75;;;;;;;;;;5015336;28;20196;-50
2022/07/20 09:26:27;;;;;;;383.45;326.92;;;;;;;;;;5016906;28;20696;-50
2022/07/20 09:28:54;;;;;;;375.20;332.13;;;;;;;;;;5016769;28;20224;-50
2022/07/20 09:31:22;;;;;;;407.85;353.50;;;;;;;;;;5016805;28;20689;-50
2022/07/20 09:33:51;;;;;;;375.50;329.92;;;;;;;;;;5017022;28;20216;-50
2022/07/20 09:36:18;;;;;;;378.80;337.13;;;;;;;;;;5020861;28;20219;-50
2022/07/20 09:38:44;;;;;;;370.35;328.25;;;;;;;;;;5023776;28;20228;-50
2022/07/20 09:41:30;;;;;;;379.25;326.13;;;;;;;;;;5006905;28;20696;-50
2022/07/20 09:43:56;;;;;;;378.42;330.50;;;;;;;;;;5004233;28;20232;-50
2022/07/20 09:46:24;;;;;;;373.77;332.77;;;;;;;;;;5003483;28;20225;-50
2022/07/20 09:48:51;;;;;;;376.55;334.88;;;;;;;;;;5003810;28;20685;-50
2022/07/20 09:51:27;;;;;;;394.02;346.65;;;;;;;;;;5004258;28;20181;-50
2022/07/20 09:53:58;;;;;;;383.13;333.88;;;;;;;;;;5004156;28;20213;-50
2022/07/20 09:56:25;;;;;;;378.77;336.70;;;;;;;;;;5003661;28;20244;-50
2022/07/20 09:58:56;;;;;;;387.65;340.00;;;;;;;;;;5003825;28;20240;-50
2022/07/20 10:01:26;;;;;;;386.02;342.58;;;;;;;;;;5004134;28;20224;-50
2022/07/20 10:03:53;;;;;;;375.38;330.65;;;;;;;;;;5003741;28;20233;-50
2022/07/20 10:06:19;;;;;;;391.45;346.52;;;;;;;;;;5004164;28;20165;-50
2022/07/20 10:08:46;;;;;;;374.15;333.90;;;;;;;;;;5003458;28;20217;-50
2022/07/20 10:11:12;;;;;;;388.02;345.48;;;;;;;;;;5003940;28;20223;-50
2022/07/20 10:13:40;;;;;;;385.25;342.95;;;;;;;;;;5003286;28;20531;-50
2022/07/20 10:16:19;;;;;;;387.55;344.90;;;;;;;;;;5003668;28;20221;-50
2022/07/20 10:18:45;;;;;;;390.83;348.67;;;;;;;;;;5003612;28;20224;-50
2022/07/20 10:21:30;;;;;;;392.92;350.95;;;;;;;;;;5003804;28;20165;-50
2022/07/20 10:24:16;;;;;;;404.85;361.52;;;;;;;;;;5002996;28;20206;-50
2022/07/20 10:26:43;;;;;;;421.95;376.05;;;;;;;;;;5002945;28;20229;-50
2022/07/20 10:29:09;;;;;;;398.23;356.85;;;;;;;;;;5003577;28;20228;-50
2022/07/20 10:31:48;;;;;;;393.33;349.98;;;;;;;;;;4998114;28;20222;-51
2022/07/20 10:34:33;;;;;;;402.05;358.77;;;;;;;;;;4983717;28;20550;-51
2022/07/20 10:37:18;;;;;;;402.23;359.00;;;;;;;;;;4994543;28;20232;-50
2022/07/20 10:39:45;;;;;;;401.00;357.60;;;;;;;;;;5003727;28;20213;-50
2022/07/20 10:42:34;;;;;;;399.08;356.42;;;;;;;;;;4992358;28;20189;-50
2022/07/20 10:45:15;;;;;;;401.75;358.65;;;;;;;;;;5023349;28;20208;-50
2022/07/20 10:48:11;;;;;;;383.90;341.98;;;;;;;;;;5020805;28;20232;-50
2022/07/20 10:50:38;;;;;;;399.65;357.50;;;;;;;;;;5019501;28;20212;-50
2022/07/20 10:53:13;;;;;;;394.45;355.13;;;;;;;;;;5020337;28;20680;-52
2022/07/20 10:55:39;;;;;;;403.90;361.67;;;;;;;;;;4994350;28;20217;-52
2022/07/20 10:58:09;;;;;;;414.20;370.98;;;;;;;;;;5000102;28;20236;-51
2022/07/20 11:00:36;;;;;;;403.15;361.70;;;;;;;;;;5000573;28;20506;-51
2022/07/20 11:03:12;;;;;;;412.25;371.38;;;;;;;;;;5003099;28;20170;-51
2022/07/20 11:05:39;;;;;;;417.25;376.08;;;;;;;;;;4995999;28;20251;-51
2022/07/20 11:08:05;;;;;;;408.85;369.75;;;;;;;;;;5000357;28;20218;-51
2022/07/20 11:10:31;;;;;;;410.70;370.13;;;;;;;;;;4998016;28;20225;-51
2022/07/20 11:12:59;;;;;;;420.15;378.40;;;;;;;;;;4998041;28;20676;-51
2022/07/20 11:15:45;;;;;;;421.50;379.98;;;;;;;;;;4990462;28;20185;-51
2022/07/20 11:18:13;;;;;;;426.27;383.42;;;;;;;;;;4987597;28;20216;-51
2022/07/20 11:21:05;;;;;;;416.35;375.38;;;;;;;;;;4993815;28;20253;-51
2022/07/20 11:23:46;;;;;;;432.38;388.85;;;;;;;;;;4984213;28;20229;-51
2022/07/20 11:26:13;;;;;;;412.70;371.75;;;;;;;;;;5005297;28;20224;-51
2022/07/20 11:28:49;;;;;;;414.90;375.20;;;;;;;;;;5005608;28;20237;-51
2022/07/20 11:31:17;;;;;;;408.95;368.60;;;;;;;;;;4995909;28;20290;-52
2022/07/20 11:33:43;;;;;;;410.05;369.15;;;;;;;;;;4990839;28;20230;-51
2022/07/20 11:36:10;;;;;;;418.00;376.15;;;;;;;;;;4999485;28;20177;-51
2022/07/20 11:38:38;;;;;;;432.67;390.58;;;;;;;;;;4997331;28;20226;-52
2022/07/20 11:41:05;;;;;;;437.15;393.55;;;;;;;;;;5003207;28;20224;-52
2022/07/20 11:43:31;;;;;;;433.52;391.20;;;;;;;;;;4993324;28;20226;-51
2022/07/20 11:46:14;;;;;;;433.70;391.48;;;;;;;;;;4994672;28;20676;-52
2022/07/20 11:48:40;;;;;;;424.50;382.98;;;;;;;;;;5002205;28;20189;-52
2022/07/20 11:51:07;;;;;;;435.92;394.35;;;;;;;;;;4999330;28;20169;-51
2022/07/20 11:53:34;;;;;;;448.77;406.15;;;;;;;;;;4988418;28;20275;-52
2022/07/20 11:56:01;;;;;;;438.10;395.42;;;;;;;;;;4991828;28;20267;-52
2022/07/20 11:58:28;;;;;;;450.27;406.55;;;;;;;;;;4991796;28;20257;-52
2022/07/20 12:00:55;;;;;;;451.90;408.27;;;;;;;;;;4994252;28;20228;-52
2022/07/20 12:03:22;;;;;;;443.40;402.08;;;;;;;;;;4995744;28;20428;-52
2022/07/20 12:05:48;;;;;;;451.75;408.65;;;;;;;;;;4996556;28;20252;-52
2022/07/20 12:08:15;;;;;;;477.65;430.65;;;;;;;;;;4989264;28;20222;-51
2022/07/20 12:10:42;;;;;;;451.75;409.08;;;;;;;;;;4995392;28;20562;-52
2022/07/20 12:13:09;;;;;;;455.65;412.85;;;;;;;;;;4989736;28;20570;-52
2022/07/20 12:15:35;;;;;;;463.38;419.60;;;;;;;;;;4994041;28;20252;-51
2022/07/20 12:18:01;;;;;;;453.30;410.83;;;;;;;;;;4992906;28;20205;-52
2022/07/20 12:20:27;;;;;;;462.00;417.50;;;;;;;;;;4990905;28;20222;-52
2022/07/20 12:22:57;;;;;;;448.42;407.10;;;;;;;;;;4989871;28;20229;-52
2022/07/20 12:25:34;;;;;;;451.40;408.63;;;;;;;;;;4990406;28;20270;-52
2022/07/20 12:28:00;;;;;;;454.25;411.90;;;;;;;;;;4987127;28;20596;-52
2022/07/20 12:30:26;;;;;;;468.45;424.48;;;;;;;;;;4991885;28;20190;-51
2022/07/20 12:33:14;;;;;;;468.13;423.95;;;;;;;;;;4994436;28;20511;-51
2022/07/20 12:35:41;;;;;;;447.00;405.85;;;;;;;;;;4991027;28;20218;-52
2022/07/20 12:38:08;;;;;;;457.80;415.25;;;;;;;;;;4990280;28;20237;-51
2022/07/20 12:40:34;;;;;;;453.23;411.38;;;;;;;;;;4991628;28;20217;-52
2022/07/20 12:43:00;;;;;;;459.30;417.10;;;;;;;;;;4989534;28;20218;-52
2022/07/20 12:45:26;;;;;;;469.45;425.83;;;;;;;;;;4993408;28;20193;-52
2022/07/20 12:47:52;;;;;;;465.48;423.38;;;;;;;;;;4992348;28;20197;-52
2022/07/20 12:50:18;;;;;;;484.10;438.77;;;;;;;;;;4990986;28;20236;-52
2022/07/20 12:52:44;;;;;;;474.52;430.42;;;;;;;;;;4990832;28;20217;-51
2022/07/20 12:55:10;;;;;;;469.48;426.17;;;;;;;;;;4997323;28;20221;-51
2022/07/20 12:57:36;;;;;;;473.92;430.77;;;;;;;;;;5000278;28;20224;-52
2022/07/20 13:00:04;;;;;;;476.60;432.42;;;;;;;;;;4994010;28;20185;-51
2022/07/20 13:02:30;;;;;;;470.08;427.75;;;;;;;;;;4992111;28;20233;-52
2022/07/20 13:04:56;;;;;;;464.88;423.42;;;;;;;;;;4998118;28;20221;-52
2022/07/20 13:07:22;;;;;;;468.98;427.35;;;;;;;;;;4997850;28;20226;-52
2022/07/20 13:09:48;;;;;;;464.98;424.48;;;;;;;;;;5001356;28;20240;-52
2022/07/20 13:12:14;;;;;;;479.52;436.75;;;;;;;;;;5012599;28;20174;-52
2022/07/20 13:14:40;;;;;;;473.15;432.00;;;;;;;;;;4998238;28;20674;-52
2022/07/20 13:17:06;;;;;;;471.20;429.30;;;;;;;;;;4998134;28;20225;-52
2022/07/20 13:19:32;;;;;;;474.85;432.40;;;;;;;;;;4989614;28;20222;-53
2022/07/20 13:21:58;;;;;;;473.00;431.40;;;;;;;;;;4993491;28;20272;-52
2022/07/20 13:24:24;;;;;;;507.23;457.67;;;;;;;;;;5051361;22;20224;-72
2022/07/20 13:26:51;;;;;;;512.38;465.05;;;;;;;;;;5006688;28;20169;-73
2022/07/20 13:29:17;;;;;;;476.92;434.98;;;;;;;;;;5026008;28;20213;-73
2022/07/20 13:31:43;;;;;;;492.58;450.17;;;;;;;;;;5004895;28;20228;-73
2022/07/20 13:34:09;;;;;;;495.90;451.83;;;;;;;;;;5022546;28;20236;-73
2022/07/20 13:36:35;;;;;;;500.25;456.02;;;;;;;;;;5010166;28;20863;-73
2022/07/20 13:39:01;;;;;;;507.48;461.67;;;;;;;;;;5006734;28;20192;-73
2022/07/20 13:41:27;;;;;;;497.92;453.73;;;;;;;;;;5009023;28;20213;-73
2022/07/20 13:43:53;;;;;;;507.63;463.50;;;;;;;;;;5009651;28;20267;-73
2022/07/20 13:46:19;;;;;;;497.33;452.95;;;;;;;;;;5009663;28;20205;-73
2022/07/20 13:48:45;;;;;;;520.30;471.98;;;;;;;;;;5002424;28;20221;-73
2022/07/20 13:51:11;;;;;;;517.28;469.65;;;;;;;;;;5005055;28;20219;-73
2022/07/20 13:53:38;;;;;;;492.27;448.60;;;;;;;;;;5009911;28;20270;-73